sensor_id;sensor_type;location;lat;lon;timestamp;P1;durP1;ratioP1;P2;durP2;ratioP2
28545;SDS011;15749;49.606;8.738;2022-10-16T00:01:17;0.77;;;0.70;;
28545;SDS011;15749;49.606;8.738;2022-10-16T00:04:06;3.77;;;0.90;;
28545;SDS011;15749;49.606;8.738;2022-10-16T00:06:55;1.13;;;1.00;;
28545;SDS011;15749;49.606;8.738;2022-10-16T00:09:42;3.43;;;1.37;;
28545;SDS011;15749;49.606;8.738;2022-10-16T00:12:29;3.13;;;1.10;;
28545;SDS011;15749;49.606;8.738;2022-10-16T00:15:18;6.97;;;1.13;;
28545;SDS011;15749;49.606;8.738;2022-10-16T00:18:06;3.17;;;1.03;;
28545;SDS011;15749;49.606;8.738;2022-10-16T00:20:54;1.13;;;0.70;;
28545;SDS011;15749;49.606;8.738;2022-10-16T00:23:42;0.80;;;0.80;;
28545;SDS011;15749;49.606;8.738;2022-10-16T00:26:30;3.53;;;1.10;;
28545;SDS011;15749;49.606;8.738;2022-10-16T00:29:19;4.53;;;1.47;;
28545;SDS011;15749;49.606;8.738;2022-10-16T00:32:08;1.57;;;0.93;;
28545;SDS011;15749;49.606;8.738;2022-10-16T00:34:56;1.20;;;0.90;;
28545;SDS011;15749;49.606;8.738;2022-10-16T00:37:43;1.47;;;0.90;;
28545;SDS011;15749;49.606;8.738;2022-10-16T00:40:30;1.73;;;0.80;;
28545;SDS011;15749;49.606;8.738;2022-10-16T00:43:32;7.87;;;1.10;;
28545;SDS011;15749;49.606;8.738;2022-10-16T00:46:24;1.30;;;0.90;;
28545;SDS011;15749;49.606;8.738;2022-10-16T00:49:17;1.77;;;0.80;;
28545;SDS011;15749;49.606;8.738;2022-10-16T00:52:06;1.30;;;0.70;;
28545;SDS011;15749;49.606;8.738;2022-10-16T00:54:54;1.23;;;0.70;;
28545;SDS011;15749;49.606;8.738;2022-10-16T00:57:43;2.03;;;0.80;;
28545;SDS011;15749;49.606;8.738;2022-10-16T01:00:31;0.80;;;0.77;;
28545;SDS011;15749;49.606;8.738;2022-10-16T01:03:24;1.00;;;0.70;;
28545;SDS011;15749;49.606;8.738;2022-10-16T01:06:23;1.13;;;1.00;;
28545;SDS011;15749;49.606;8.738;2022-10-16T01:09:20;0.87;;;0.83;;
28545;SDS011;15749;49.606;8.738;2022-10-16T01:12:12;1.27;;;1.10;;
28545;SDS011;15749;49.606;8.738;2022-10-16T01:15:14;1.00;;;0.80;;
28545;SDS011;15749;49.606;8.738;2022-10-16T01:18:10;1.20;;;0.80;;
28545;SDS011;15749;49.606;8.738;2022-10-16T01:21:06;0.70;;;0.70;;
28545;SDS011;15749;49.606;8.738;2022-10-16T01:24:00;0.80;;;0.80;;
28545;SDS011;15749;49.606;8.738;2022-10-16T01:27:10;3.53;;;1.10;;
28545;SDS011;15749;49.606;8.738;2022-10-16T01:30:02;3.03;;;0.80;;
28545;SDS011;15749;49.606;8.738;2022-10-16T01:32:57;6.30;;;0.90;;
28545;SDS011;15749;49.606;8.738;2022-10-16T01:35:51;1.03;;;0.90;;
28545;SDS011;15749;49.606;8.738;2022-10-16T01:38:41;2.10;;;0.60;;
28545;SDS011;15749;49.606;8.738;2022-10-16T01:41:34;1.50;;;0.63;;
28545;SDS011;15749;49.606;8.738;2022-10-16T01:44:28;1.63;;;0.60;;
28545;SDS011;15749;49.606;8.738;2022-10-16T01:47:18;1.43;;;0.70;;
28545;SDS011;15749;49.606;8.738;2022-10-16T01:50:09;0.80;;;0.60;;
28545;SDS011;15749;49.606;8.738;2022-10-16T01:52:57;2.27;;;0.90;;
28545;SDS011;15749;49.606;8.738;2022-10-16T01:55:47;2.53;;;0.83;;
28545;SDS011;15749;49.606;8.738;2022-10-16T01:58:36;1.43;;;0.60;;
28545;SDS011;15749;49.606;8.738;2022-10-16T02:01:31;5.33;;;1.03;;
28545;SDS011;15749;49.606;8.738;2022-10-16T02:04:22;0.70;;;0.60;;
28545;SDS011;15749;49.606;8.738;2022-10-16T02:07:14;1.00;;;0.70;;
28545;SDS011;15749;49.606;8.738;2022-10-16T02:10:02;2.10;;;0.50;;
28545;SDS011;15749;49.606;8.738;2022-10-16T02:12:53;0.90;;;0.60;;
28545;SDS011;15749;49.606;8.738;2022-10-16T02:15:46;0.57;;;0.50;;
28545;SDS011;15749;49.606;8.738;2022-10-16T02:18:35;0.50;;;0.50;;
28545;SDS011;15749;49.606;8.738;2022-10-16T02:21:23;0.80;;;0.60;;
28545;SDS011;15749;49.606;8.738;2022-10-16T02:24:17;0.50;;;0.50;;
28545;SDS011;15749;49.606;8.738;2022-10-16T02:27:13;2.50;;;0.53;;
28545;SDS011;15749;49.606;8.738;2022-10-16T02:30:11;0.83;;;0.50;;
28545;SDS011;15749;49.606;8.738;2022-10-16T02:33:05;0.97;;;0.47;;
28545;SDS011;15749;49.606;8.738;2022-10-16T02:35:57;0.50;;;0.50;;
28545;SDS011;15749;49.606;8.738;2022-10-16T02:38:45;1.53;;;0.60;;
28545;SDS011;15749;49.606;8.738;2022-10-16T02:41:32;2.33;;;0.70;;
28545;SDS011;15749;49.606;8.738;2022-10-16T02:44:20;0.60;;;0.60;;
28545;SDS011;15749;49.606;8.738;2022-10-16T02:47:08;0.60;;;0.43;;
28545;SDS011;15749;49.606;8.738;2022-10-16T02:49:55;1.67;;;0.60;;
28545;SDS011;15749;49.606;8.738;2022-10-16T02:52:44;0.57;;;0.43;;
28545;SDS011;15749;49.606;8.738;2022-10-16T02:55:32;0.40;;;0.40;;
28545;SDS011;15749;49.606;8.738;2022-10-16T02:58:19;1.97;;;0.50;;
28545;SDS011;15749;49.606;8.738;2022-10-16T03:01:07;0.67;;;0.50;;
28545;SDS011;15749;49.606;8.738;2022-10-16T03:03:55;1.97;;;0.60;;
28545;SDS011;15749;49.606;8.738;2022-10-16T03:06:42;0.63;;;0.43;;
28545;SDS011;15749;49.606;8.738;2022-10-16T03:09:31;1.50;;;0.50;;
28545;SDS011;15749;49.606;8.738;2022-10-16T03:12:18;1.33;;;0.50;;
28545;SDS011;15749;49.606;8.738;2022-10-16T03:15:06;3.17;;;0.40;;
28545;SDS011;15749;49.606;8.738;2022-10-16T03:17:55;1.10;;;0.40;;
28545;SDS011;15749;49.606;8.738;2022-10-16T03:20:44;1.00;;;0.40;;
28545;SDS011;15749;49.606;8.738;2022-10-16T03:23:32;0.67;;;0.60;;
28545;SDS011;15749;49.606;8.738;2022-10-16T03:26:21;1.10;;;0.50;;
28545;SDS011;15749;49.606;8.738;2022-10-16T03:29:08;0.50;;;0.50;;
28545;SDS011;15749;49.606;8.738;2022-10-16T03:31:55;0.50;;;0.50;;
28545;SDS011;15749;49.606;8.738;2022-10-16T03:34:43;0.60;;;0.60;;
28545;SDS011;15749;49.606;8.738;2022-10-16T03:37:31;1.83;;;0.50;;
28545;SDS011;15749;49.606;8.738;2022-10-16T03:40:18;3.47;;;0.63;;
28545;SDS011;15749;49.606;8.738;2022-10-16T03:43:07;1.83;;;0.57;;
28545;SDS011;15749;49.606;8.738;2022-10-16T03:45:55;0.57;;;0.50;;
28545;SDS011;15749;49.606;8.738;2022-10-16T03:48:42;1.53;;;0.40;;
28545;SDS011;15749;49.606;8.738;2022-10-16T03:51:30;0.87;;;0.50;;
28545;SDS011;15749;49.606;8.738;2022-10-16T03:54:17;2.63;;;0.77;;
28545;SDS011;15749;49.606;8.738;2022-10-16T03:57:05;1.93;;;0.40;;
28545;SDS011;15749;49.606;8.738;2022-10-16T03:59:54;0.70;;;0.40;;
28545;SDS011;15749;49.606;8.738;2022-10-16T04:02:41;1.17;;;0.33;;
28545;SDS011;15749;49.606;8.738;2022-10-16T04:05:29;0.47;;;0.37;;
28545;SDS011;15749;49.606;8.738;2022-10-16T04:08:16;2.40;;;0.40;;
28545;SDS011;15749;49.606;8.738;2022-10-16T04:11:04;1.37;;;0.57;;
28545;SDS011;15749;49.606;8.738;2022-10-16T04:13:51;0.90;;;0.60;;
28545;SDS011;15749;49.606;8.738;2022-10-16T04:16:40;0.40;;;0.40;;
28545;SDS011;15749;49.606;8.738;2022-10-16T04:19:28;2.20;;;0.60;;
28545;SDS011;15749;49.606;8.738;2022-10-16T04:22:15;0.77;;;0.50;;
28545;SDS011;15749;49.606;8.738;2022-10-16T04:25:03;1.03;;;0.63;;
28545;SDS011;15749;49.606;8.738;2022-10-16T04:27:52;0.67;;;0.50;;
28545;SDS011;15749;49.606;8.738;2022-10-16T04:30:39;1.67;;;0.50;;
28545;SDS011;15749;49.606;8.738;2022-10-16T04:33:29;0.57;;;0.57;;
28545;SDS011;15749;49.606;8.738;2022-10-16T04:36:16;0.63;;;0.50;;
28545;SDS011;15749;49.606;8.738;2022-10-16T04:39:03;4.13;;;0.60;;
28545;SDS011;15749;49.606;8.738;2022-10-16T04:41:51;2.10;;;0.87;;
28545;SDS011;15749;49.606;8.738;2022-10-16T04:44:38;0.70;;;0.60;;
28545;SDS011;15749;49.606;8.738;2022-10-16T04:47:25;3.70;;;0.90;;
28545;SDS011;15749;49.606;8.738;2022-10-16T04:50:15;1.23;;;0.60;;
28545;SDS011;15749;49.606;8.738;2022-10-16T04:53:19;1.03;;;0.60;;
28545;SDS011;15749;49.606;8.738;2022-10-16T04:56:06;2.50;;;0.70;;
28545;SDS011;15749;49.606;8.738;2022-10-16T04:58:54;1.90;;;0.60;;
28545;SDS011;15749;49.606;8.738;2022-10-16T05:01:41;3.17;;;0.90;;
28545;SDS011;15749;49.606;8.738;2022-10-16T05:04:29;1.40;;;0.60;;
28545;SDS011;15749;49.606;8.738;2022-10-16T05:07:17;0.70;;;0.70;;
28545;SDS011;15749;49.606;8.738;2022-10-16T05:10:05;1.47;;;0.50;;
28545;SDS011;15749;49.606;8.738;2022-10-16T05:12:53;1.00;;;0.90;;
28545;SDS011;15749;49.606;8.738;2022-10-16T05:15:40;2.30;;;1.00;;
28545;SDS011;15749;49.606;8.738;2022-10-16T05:18:27;1.40;;;1.10;;
28545;SDS011;15749;49.606;8.738;2022-10-16T05:21:15;2.00;;;1.00;;
28545;SDS011;15749;49.606;8.738;2022-10-16T05:24:03;1.67;;;0.90;;
28545;SDS011;15749;49.606;8.738;2022-10-16T05:26:51;0.60;;;0.60;;
28545;SDS011;15749;49.606;8.738;2022-10-16T05:29:38;0.70;;;0.40;;
28545;SDS011;15749;49.606;8.738;2022-10-16T05:32:26;0.90;;;0.60;;
28545;SDS011;15749;49.606;8.738;2022-10-16T05:35:13;1.13;;;0.90;;
28545;SDS011;15749;49.606;8.738;2022-10-16T05:38:02;2.03;;;0.80;;
28545;SDS011;15749;49.606;8.738;2022-10-16T05:40:51;2.30;;;0.90;;
28545;SDS011;15749;49.606;8.738;2022-10-16T05:43:39;1.20;;;1.10;;
28545;SDS011;15749;49.606;8.738;2022-10-16T05:46:26;0.93;;;0.90;;
28545;SDS011;15749;49.606;8.738;2022-10-16T05:49:14;1.30;;;1.10;;
28545;SDS011;15749;49.606;8.738;2022-10-16T05:52:01;1.20;;;1.00;;
28545;SDS011;15749;49.606;8.738;2022-10-16T05:54:49;1.53;;;0.93;;
28545;SDS011;15749;49.606;8.738;2022-10-16T05:57:38;2.83;;;0.83;;
28545;SDS011;15749;49.606;8.738;2022-10-16T06:00:26;3.03;;;0.80;;
28545;SDS011;15749;49.606;8.738;2022-10-16T06:03:13;1.47;;;0.80;;
28545;SDS011;15749;49.606;8.738;2022-10-16T06:05:42;0.50;;;0.50;;
28545;SDS011;15749;49.606;8.738;2022-10-16T06:08:11;1.17;;;0.70;;
28545;SDS011;15749;49.606;8.738;2022-10-16T06:10:40;0.97;;;0.40;;
28545;SDS011;15749;49.606;8.738;2022-10-16T06:13:12;3.23;;;0.70;;
28545;SDS011;15749;49.606;8.738;2022-10-16T06:15:42;4.03;;;1.30;;
28545;SDS011;15749;49.606;8.738;2022-10-16T06:18:11;1.10;;;1.00;;
28545;SDS011;15749;49.606;8.738;2022-10-16T06:20:40;0.87;;;0.80;;
28545;SDS011;15749;49.606;8.738;2022-10-16T06:23:09;1.30;;;0.90;;
28545;SDS011;15749;49.606;8.738;2022-10-16T06:25:38;0.73;;;0.70;;
28545;SDS011;15749;49.606;8.738;2022-10-16T06:28:07;3.83;;;0.87;;
28545;SDS011;15749;49.606;8.738;2022-10-16T06:30:37;2.50;;;0.80;;
28545;SDS011;15749;49.606;8.738;2022-10-16T06:33:06;0.70;;;0.67;;
28545;SDS011;15749;49.606;8.738;2022-10-16T06:35:35;2.70;;;2.07;;
28545;SDS011;15749;49.606;8.738;2022-10-16T06:38:04;1.30;;;1.20;;
28545;SDS011;15749;49.606;8.738;2022-10-16T06:40:33;5.97;;;1.10;;
28545;SDS011;15749;49.606;8.738;2022-10-16T06:43:02;4.30;;;1.30;;
28545;SDS011;15749;49.606;8.738;2022-10-16T06:45:31;3.27;;;1.00;;
28545;SDS011;15749;49.606;8.738;2022-10-16T06:48:02;0.77;;;0.77;;
28545;SDS011;15749;49.606;8.738;2022-10-16T06:50:31;2.50;;;1.00;;
28545;SDS011;15749;49.606;8.738;2022-10-16T06:53:00;0.97;;;0.80;;
28545;SDS011;15749;49.606;8.738;2022-10-16T06:55:29;1.43;;;0.83;;
28545;SDS011;15749;49.606;8.738;2022-10-16T06:57:58;2.73;;;1.00;;
28545;SDS011;15749;49.606;8.738;2022-10-16T07:00:27;1.30;;;1.00;;
28545;SDS011;15749;49.606;8.738;2022-10-16T07:02:56;1.40;;;0.70;;
28545;SDS011;15749;49.606;8.738;2022-10-16T07:05:27;1.30;;;0.90;;
28545;SDS011;15749;49.606;8.738;2022-10-16T07:07:56;0.70;;;0.70;;
28545;SDS011;15749;49.606;8.738;2022-10-16T07:10:25;1.50;;;0.80;;
28545;SDS011;15749;49.606;8.738;2022-10-16T07:12:54;1.23;;;0.90;;
28545;SDS011;15749;49.606;8.738;2022-10-16T07:15:24;5.07;;;1.40;;
28545;SDS011;15749;49.606;8.738;2022-10-16T07:17:54;1.40;;;1.30;;
28545;SDS011;15749;49.606;8.738;2022-10-16T07:20:23;2.20;;;1.40;;
28545;SDS011;15749;49.606;8.738;2022-10-16T07:22:53;1.50;;;1.30;;
28545;SDS011;15749;49.606;8.738;2022-10-16T07:25:22;2.23;;;1.10;;
28545;SDS011;15749;49.606;8.738;2022-10-16T07:27:51;1.60;;;1.17;;
28545;SDS011;15749;49.606;8.738;2022-10-16T07:30:23;0.90;;;0.90;;
28545;SDS011;15749;49.606;8.738;2022-10-16T07:32:52;0.90;;;0.70;;
28545;SDS011;15749;49.606;8.738;2022-10-16T07:35:21;1.10;;;0.93;;
28545;SDS011;15749;49.606;8.738;2022-10-16T07:37:50;1.43;;;0.90;;
28545;SDS011;15749;49.606;8.738;2022-10-16T07:40:21;1.00;;;0.90;;
28545;SDS011;15749;49.606;8.738;2022-10-16T07:42:50;1.30;;;0.80;;
28545;SDS011;15749;49.606;8.738;2022-10-16T07:45:19;1.27;;;0.80;;
28545;SDS011;15749;49.606;8.738;2022-10-16T07:47:48;2.90;;;0.60;;
28545;SDS011;15749;49.606;8.738;2022-10-16T07:50:17;0.70;;;0.70;;
28545;SDS011;15749;49.606;8.738;2022-10-16T07:52:46;2.10;;;1.07;;
28545;SDS011;15749;49.606;8.738;2022-10-16T07:55:15;0.90;;;0.77;;
28545;SDS011;15749;49.606;8.738;2022-10-16T07:57:45;2.47;;;1.17;;
28545;SDS011;15749;49.606;8.738;2022-10-16T08:00:15;6.33;;;1.20;;
28545;SDS011;15749;49.606;8.738;2022-10-16T08:02:44;1.17;;;0.97;;
28545;SDS011;15749;49.606;8.738;2022-10-16T08:05:13;2.80;;;0.90;;
28545;SDS011;15749;49.606;8.738;2022-10-16T08:07:42;1.50;;;0.90;;
28545;SDS011;15749;49.606;8.738;2022-10-16T08:10:16;0.90;;;0.80;;
28545;SDS011;15749;49.606;8.738;2022-10-16T08:12:49;1.53;;;0.90;;
28545;SDS011;15749;49.606;8.738;2022-10-16T08:15:19;1.00;;;0.90;;
28545;SDS011;15749;49.606;8.738;2022-10-16T08:17:56;1.67;;;1.00;;
28545;SDS011;15749;49.606;8.738;2022-10-16T08:20:26;1.43;;;0.70;;
28545;SDS011;15749;49.606;8.738;2022-10-16T08:22:57;1.33;;;0.90;;
28545;SDS011;15749;49.606;8.738;2022-10-16T08:25:27;1.57;;;1.20;;
28545;SDS011;15749;49.606;8.738;2022-10-16T08:27:58;2.17;;;1.10;;
28545;SDS011;15749;49.606;8.738;2022-10-16T08:30:27;1.20;;;0.90;;
28545;SDS011;15749;49.606;8.738;2022-10-16T08:32:56;2.27;;;1.07;;
28545;SDS011;15749;49.606;8.738;2022-10-16T08:35:26;1.27;;;1.17;;
28545;SDS011;15749;49.606;8.738;2022-10-16T08:37:55;2.17;;;1.00;;
28545;SDS011;15749;49.606;8.738;2022-10-16T08:40:25;1.00;;;0.80;;
28545;SDS011;15749;49.606;8.738;2022-10-16T08:46:06;1.77;;;0.90;;
28545;SDS011;15749;49.606;8.738;2022-10-16T08:48:49;3.17;;;0.90;;
28545;SDS011;15749;49.606;8.738;2022-10-16T08:51:21;1.60;;;0.80;;
28545;SDS011;15749;49.606;8.738;2022-10-16T08:53:53;1.53;;;0.60;;
28545;SDS011;15749;49.606;8.738;2022-10-16T08:56:25;1.23;;;0.87;;
28545;SDS011;15749;49.606;8.738;2022-10-16T08:58:57;0.90;;;0.70;;
28545;SDS011;15749;49.606;8.738;2022-10-16T09:01:32;1.57;;;0.80;;
28545;SDS011;15749;49.606;8.738;2022-10-16T09:07:13;1.63;;;0.90;;
28545;SDS011;15749;49.606;8.738;2022-10-16T09:09:57;11.17;;;1.10;;
28545;SDS011;15749;49.606;8.738;2022-10-16T09:12:43;1.90;;;1.00;;
28545;SDS011;15749;49.606;8.738;2022-10-16T09:15:25;1.40;;;1.30;;
28545;SDS011;15749;49.606;8.738;2022-10-16T09:18:00;1.00;;;0.90;;
28545;SDS011;15749;49.606;8.738;2022-10-16T09:20:40;2.43;;;1.00;;
28545;SDS011;15749;49.606;8.738;2022-10-16T09:23:19;0.90;;;0.80;;
28545;SDS011;15749;49.606;8.738;2022-10-16T09:25:54;0.90;;;0.90;;
28545;SDS011;15749;49.606;8.738;2022-10-16T09:28:24;5.37;;;1.10;;
28545;SDS011;15749;49.606;8.738;2022-10-16T09:30:55;2.10;;;0.87;;
28545;SDS011;15749;49.606;8.738;2022-10-16T09:33:25;1.20;;;0.87;;
28545;SDS011;15749;49.606;8.738;2022-10-16T09:35:58;2.20;;;1.10;;
28545;SDS011;15749;49.606;8.738;2022-10-16T09:38:28;1.13;;;1.03;;
28545;SDS011;15749;49.606;8.738;2022-10-16T09:41:00;1.10;;;1.00;;
28545;SDS011;15749;49.606;8.738;2022-10-16T09:43:32;0.77;;;0.77;;
28545;SDS011;15749;49.606;8.738;2022-10-16T09:46:19;1.80;;;1.10;;
28545;SDS011;15749;49.606;8.738;2022-10-16T09:48:54;2.53;;;1.50;;
28545;SDS011;15749;49.606;8.738;2022-10-16T09:51:27;1.73;;;1.03;;
28545;SDS011;15749;49.606;8.738;2022-10-16T09:53:59;6.30;;;1.63;;
28545;SDS011;15749;49.606;8.738;2022-10-16T09:56:30;1.93;;;1.10;;
28545;SDS011;15749;49.606;8.738;2022-10-16T09:59:08;1.40;;;1.10;;
28545;SDS011;15749;49.606;8.738;2022-10-16T10:01:42;1.00;;;0.90;;
28545;SDS011;15749;49.606;8.738;2022-10-16T10:04:16;7.17;;;1.67;;
28545;SDS011;15749;49.606;8.738;2022-10-16T10:06:46;1.20;;;1.10;;
28545;SDS011;15749;49.606;8.738;2022-10-16T10:09:18;2.07;;;0.80;;
28545;SDS011;15749;49.606;8.738;2022-10-16T10:11:51;2.23;;;0.90;;
28545;SDS011;15749;49.606;8.738;2022-10-16T10:14:23;3.60;;;0.80;;
28545;SDS011;15749;49.606;8.738;2022-10-16T10:17:09;6.57;;;1.00;;
28545;SDS011;15749;49.606;8.738;2022-10-16T10:19:46;1.23;;;0.97;;
28545;SDS011;15749;49.606;8.738;2022-10-16T10:22:25;1.37;;;1.00;;
28545;SDS011;15749;49.606;8.738;2022-10-16T10:25:00;0.70;;;0.70;;
28545;SDS011;15749;49.606;8.738;2022-10-16T10:31:21;1.17;;;0.87;;
28545;SDS011;15749;49.606;8.738;2022-10-16T10:33:57;1.10;;;0.90;;
28545;SDS011;15749;49.606;8.738;2022-10-16T10:36:36;1.43;;;1.03;;
28545;SDS011;15749;49.606;8.738;2022-10-16T10:39:07;1.73;;;0.93;;
28545;SDS011;15749;49.606;8.738;2022-10-16T10:44:57;1.47;;;0.80;;
28545;SDS011;15749;49.606;8.738;2022-10-16T10:47:47;1.20;;;0.90;;
28545;SDS011;15749;49.606;8.738;2022-10-16T10:50:34;2.27;;;0.90;;
28545;SDS011;15749;49.606;8.738;2022-10-16T10:53:12;1.07;;;0.97;;
28545;SDS011;15749;49.606;8.738;2022-10-16T10:56:07;1.23;;;0.90;;
28545;SDS011;15749;49.606;8.738;2022-10-16T11:01:54;1.50;;;0.60;;
28545;SDS011;15749;49.606;8.738;2022-10-16T11:04:33;2.45;;;0.90;;
28545;SDS011;15749;49.606;8.738;2022-10-16T11:07:26;1.00;;;0.80;;
28545;SDS011;15749;49.606;8.738;2022-10-16T11:10:01;1.10;;;0.80;;
28545;SDS011;15749;49.606;8.738;2022-10-16T11:12:38;4.28;;;1.10;;
28545;SDS011;15749;49.606;8.738;2022-10-16T11:15:12;1.63;;;0.80;;
28545;SDS011;15749;49.606;8.738;2022-10-16T11:17:46;0.80;;;0.80;;
28545;SDS011;15749;49.606;8.738;2022-10-16T11:20:21;0.90;;;0.70;;
28545;SDS011;15749;49.606;8.738;2022-10-16T11:22:56;1.63;;;0.88;;
28545;SDS011;15749;49.606;8.738;2022-10-16T11:25:31;2.63;;;1.00;;
28545;SDS011;15749;49.606;8.738;2022-10-16T11:28:01;0.80;;;0.70;;
28545;SDS011;15749;49.606;8.738;2022-10-16T11:30:39;1.48;;;0.70;;
28545;SDS011;15749;49.606;8.738;2022-10-16T11:33:22;0.98;;;0.70;;
28545;SDS011;15749;49.606;8.738;2022-10-16T11:36:00;1.27;;;0.77;;
28545;SDS011;15749;49.606;8.738;2022-10-16T11:38:39;2.35;;;0.90;;
28545;SDS011;15749;49.606;8.738;2022-10-16T11:41:20;2.47;;;0.70;;
28545;SDS011;15749;49.606;8.738;2022-10-16T11:44:05;2.38;;;1.10;;
28545;SDS011;15749;49.606;8.738;2022-10-16T11:46:48;5.45;;;1.70;;
28545;SDS011;15749;49.606;8.738;2022-10-16T11:49:49;2.65;;;1.90;;
28545;SDS011;15749;49.606;8.738;2022-10-16T11:52:23;2.25;;;1.40;;
28545;SDS011;15749;49.606;8.738;2022-10-16T11:55:01;1.10;;;1.00;;
28545;SDS011;15749;49.606;8.738;2022-10-16T11:57:42;2.78;;;1.20;;
28545;SDS011;15749;49.606;8.738;2022-10-16T12:00:18;3.72;;;1.00;;
28545;SDS011;15749;49.606;8.738;2022-10-16T12:02:54;1.58;;;0.80;;
28545;SDS011;15749;49.606;8.738;2022-10-16T12:05:35;3.08;;;0.98;;
28545;SDS011;15749;49.606;8.738;2022-10-16T12:08:22;1.20;;;1.10;;
28545;SDS011;15749;49.606;8.738;2022-10-16T12:10:53;1.45;;;1.10;;
28545;SDS011;15749;49.606;8.738;2022-10-16T12:13:35;2.17;;;1.17;;
28545;SDS011;15749;49.606;8.738;2022-10-16T12:16:16;2.20;;;2.03;;
28545;SDS011;15749;49.606;8.738;2022-10-16T12:19:02;3.10;;;2.90;;
28545;SDS011;15749;49.606;8.738;2022-10-16T12:21:39;2.70;;;2.50;;
28545;SDS011;15749;49.606;8.738;2022-10-16T12:24:19;2.25;;;1.83;;
28545;SDS011;15749;49.606;8.738;2022-10-16T12:26:59;1.50;;;1.40;;
28545;SDS011;15749;49.606;8.738;2022-10-16T12:29:32;1.67;;;0.90;;
28545;SDS011;15749;49.606;8.738;2022-10-16T12:32:05;0.88;;;0.77;;
28545;SDS011;15749;49.606;8.738;2022-10-16T12:35:17;2.08;;;0.90;;
28545;SDS011;15749;49.606;8.738;2022-10-16T12:37:49;1.15;;;0.77;;
28545;SDS011;15749;49.606;8.738;2022-10-16T12:40:26;2.53;;;1.83;;
28545;SDS011;15749;49.606;8.738;2022-10-16T12:43:11;3.15;;;2.85;;
28545;SDS011;15749;49.606;8.738;2022-10-16T12:46:04;3.67;;;2.63;;
28545;SDS011;15749;49.606;8.738;2022-10-16T12:48:51;3.78;;;3.47;;
28545;SDS011;15749;49.606;8.738;2022-10-16T12:51:35;3.67;;;2.45;;
28545;SDS011;15749;49.606;8.738;2022-10-16T12:54:11;3.10;;;2.65;;
28545;SDS011;15749;49.606;8.738;2022-10-16T12:56:46;1.60;;;1.50;;
28545;SDS011;15749;49.606;8.738;2022-10-16T12:59:31;1.40;;;1.30;;
28545;SDS011;15749;49.606;8.738;2022-10-16T13:02:25;1.20;;;1.10;;
28545;SDS011;15749;49.606;8.738;2022-10-16T13:05:26;1.58;;;0.90;;
28545;SDS011;15749;49.606;8.738;2022-10-16T13:08:15;2.80;;;1.27;;
28545;SDS011;15749;49.606;8.738;2022-10-16T13:11:04;3.63;;;3.33;;
28545;SDS011;15749;49.606;8.738;2022-10-16T13:16:48;3.42;;;3.13;;
28545;SDS011;15749;49.606;8.738;2022-10-16T13:19:29;2.50;;;2.13;;
28545;SDS011;15749;49.606;8.738;2022-10-16T13:22:06;2.78;;;1.30;;
28545;SDS011;15749;49.606;8.738;2022-10-16T13:24:50;1.48;;;1.30;;
28545;SDS011;15749;49.606;8.738;2022-10-16T13:27:35;1.75;;;1.20;;
28545;SDS011;15749;49.606;8.738;2022-10-16T13:30:13;3.35;;;3.05;;
28545;SDS011;15749;49.606;8.738;2022-10-16T13:32:48;4.22;;;3.15;;
28545;SDS011;15749;49.606;8.738;2022-10-16T13:35:24;5.90;;;2.63;;
28545;SDS011;15749;49.606;8.738;2022-10-16T13:38:05;1.50;;;1.40;;
28545;SDS011;15749;49.606;8.738;2022-10-16T13:40:51;1.15;;;1.05;;
28545;SDS011;15749;49.606;8.738;2022-10-16T13:43:27;1.20;;;0.93;;
28545;SDS011;15749;49.606;8.738;2022-10-16T13:46:01;1.00;;;0.80;;
28545;SDS011;15749;49.606;8.738;2022-10-16T13:48:34;0.98;;;0.88;;
28545;SDS011;15749;49.606;8.738;2022-10-16T13:51:04;1.98;;;0.98;;
28545;SDS011;15749;49.606;8.738;2022-10-16T13:53:39;3.05;;;1.52;;
28545;SDS011;15749;49.606;8.738;2022-10-16T13:56:11;1.35;;;1.20;;
28545;SDS011;15749;49.606;8.738;2022-10-16T13:58:42;1.83;;;1.33;;
28545;SDS011;15749;49.606;8.738;2022-10-16T14:01:15;3.20;;;1.60;;
28545;SDS011;15749;49.606;8.738;2022-10-16T14:03:48;1.63;;;1.00;;
28545;SDS011;15749;49.606;8.738;2022-10-16T14:06:18;1.88;;;1.30;;
28545;SDS011;15749;49.606;8.738;2022-10-16T14:08:50;1.30;;;1.20;;
28545;SDS011;15749;49.606;8.738;2022-10-16T14:11:27;1.30;;;1.10;;
28545;SDS011;15749;49.606;8.738;2022-10-16T14:13:56;1.80;;;1.10;;
28545;SDS011;15749;49.606;8.738;2022-10-16T14:16:27;3.58;;;1.00;;
28545;SDS011;15749;49.606;8.738;2022-10-16T14:19:01;2.92;;;1.15;;
28545;SDS011;15749;49.606;8.738;2022-10-16T14:21:33;5.60;;;1.00;;
28545;SDS011;15749;49.606;8.738;2022-10-16T14:24:10;1.30;;;1.00;;
28545;SDS011;15749;49.606;8.738;2022-10-16T14:26:43;3.05;;;1.15;;
28545;SDS011;15749;49.606;8.738;2022-10-16T14:29:18;2.20;;;1.00;;
28545;SDS011;15749;49.606;8.738;2022-10-16T14:31:54;1.10;;;1.00;;
28545;SDS011;15749;49.606;8.738;2022-10-16T14:34:27;3.00;;;1.10;;
28545;SDS011;15749;49.606;8.738;2022-10-16T14:37:00;3.38;;;1.40;;
28545;SDS011;15749;49.606;8.738;2022-10-16T14:39:35;1.20;;;1.10;;
28545;SDS011;15749;49.606;8.738;2022-10-16T14:42:04;7.30;;;1.65;;
28545;SDS011;15749;49.606;8.738;2022-10-16T14:44:42;3.53;;;1.30;;
28545;SDS011;15749;49.606;8.738;2022-10-16T14:47:13;1.63;;;1.08;;
28545;SDS011;15749;49.606;8.738;2022-10-16T14:49:50;5.43;;;1.60;;
28545;SDS011;15749;49.606;8.738;2022-10-16T14:52:22;3.95;;;1.90;;
28545;SDS011;15749;49.606;8.738;2022-10-16T14:54:51;5.22;;;1.90;;
28545;SDS011;15749;49.606;8.738;2022-10-16T14:57:22;2.93;;;1.80;;
28545;SDS011;15749;49.606;8.738;2022-10-16T14:59:56;2.95;;;1.63;;
28545;SDS011;15749;49.606;8.738;2022-10-16T15:02:27;1.90;;;1.30;;
28545;SDS011;15749;49.606;8.738;2022-10-16T15:05:02;6.40;;;1.73;;
28545;SDS011;15749;49.606;8.738;2022-10-16T15:07:41;1.20;;;1.10;;
28545;SDS011;15749;49.606;8.738;2022-10-16T15:10:11;1.17;;;1.02;;
28545;SDS011;15749;49.606;8.738;2022-10-16T15:12:40;5.87;;;3.53;;
28545;SDS011;15749;49.606;8.738;2022-10-16T15:15:15;3.87;;;3.47;;
28545;SDS011;15749;49.606;8.738;2022-10-16T15:18:00;2.67;;;2.07;;
28545;SDS011;15749;49.606;8.738;2022-10-16T15:20:32;2.93;;;2.00;;
28545;SDS011;15749;49.606;8.738;2022-10-16T15:23:05;2.73;;;1.90;;
28545;SDS011;15749;49.606;8.738;2022-10-16T15:25:42;3.83;;;1.50;;
28545;SDS011;15749;49.606;8.738;2022-10-16T15:28:14;2.42;;;1.50;;
28545;SDS011;15749;49.606;8.738;2022-10-16T15:30:45;4.57;;;1.60;;
28545;SDS011;15749;49.606;8.738;2022-10-16T15:33:16;2.63;;;1.67;;
28545;SDS011;15749;49.606;8.738;2022-10-16T15:35:50;4.23;;;1.73;;
28545;SDS011;15749;49.606;8.738;2022-10-16T15:38:20;3.10;;;1.50;;
28545;SDS011;15749;49.606;8.738;2022-10-16T15:40:51;2.03;;;1.20;;
28545;SDS011;15749;49.606;8.738;2022-10-16T15:43:20;2.75;;;1.30;;
28545;SDS011;15749;49.606;8.738;2022-10-16T15:45:57;2.20;;;1.40;;
28545;SDS011;15749;49.606;8.738;2022-10-16T15:48:29;2.77;;;1.40;;
28545;SDS011;15749;49.606;8.738;2022-10-16T15:51:00;1.13;;;1.03;;
28545;SDS011;15749;49.606;8.738;2022-10-16T15:53:34;3.43;;;1.33;;
28545;SDS011;15749;49.606;8.738;2022-10-16T15:56:04;6.43;;;1.20;;
28545;SDS011;15749;49.606;8.738;2022-10-16T15:58:35;2.63;;;1.13;;
28545;SDS011;15749;49.606;8.738;2022-10-16T16:01:05;6.40;;;1.30;;
28545;SDS011;15749;49.606;8.738;2022-10-16T16:03:37;4.17;;;1.30;;
28545;SDS011;15749;49.606;8.738;2022-10-16T16:06:09;6.57;;;1.20;;
28545;SDS011;15749;49.606;8.738;2022-10-16T16:08:40;2.47;;;1.40;;
28545;SDS011;15749;49.606;8.738;2022-10-16T16:11:10;3.00;;;1.27;;
28545;SDS011;15749;49.606;8.738;2022-10-16T16:13:41;1.67;;;1.30;;
28545;SDS011;15749;49.606;8.738;2022-10-16T16:16:10;3.03;;;1.20;;
28545;SDS011;15749;49.606;8.738;2022-10-16T16:18:41;3.27;;;1.27;;
28545;SDS011;15749;49.606;8.738;2022-10-16T16:21:12;5.27;;;1.50;;
28545;SDS011;15749;49.606;8.738;2022-10-16T16:23:41;4.33;;;1.30;;